Time;durP1;ratioP1;P1;durP2;ratioP2;P2;SDS_P1;SDS_P2;PMS_P1;PMS_P2;Temp;Humidity;BMP_temperature;BMP_pressure;BME280_temperature;BME280_humidity;BME280_pressure;Samples;Min_cycle;Max_cycle;Signal;HPM_P1;HPM_P2
2022/11/12 00:02:38;;;;;;;5.43;2.33;;;7.40;99.90;;;;;;6185430;23;20100;-87
2022/11/12 00:05:50;;;;;;;3.83;2.05;;;7.70;99.90;;;;;;6185178;23;20444;-87
2022/11/12 00:09:04;;;;;;;5.32;2.28;;;7.30;99.90;;;;;;6182170;23;20356;-88
2022/11/12 00:12:18;;;;;;;4.20;1.80;;;7.30;99.90;;;;;;6185641;23;20111;-88
2022/11/12 00:15:26;;;;;;;;;;;7.30;99.90;;;;;;6183169;23;20118;-88
2022/11/12 00:18:47;;;;;;;3.90;1.67;;;7.30;99.90;;;;;;6181827;23;19916;-87
2022/11/12 00:22:03;;;;;;;;;;;;;;;;;;;;;
2022/11/12 00:25:32;;;;;;;;;;;;;;;;;;;;;
2022/11/12 00:29:02;;;;;;;;;;;;;;;;;;;;;
2022/11/12 00:32:22;;;;;;;3.88;1.60;;;7.20;99.90;;;;;;6184946;23;20036;-87
2022/11/12 00:35:20;;;;;;;4.88;1.98;;;7.20;99.90;;;;;;6183953;23;20098;-87
2022/11/12 00:38:34;;;;;;;;;;;;;;;;;;;;;
2022/11/12 00:41:41;;;;;;;3.83;2.00;;;7.20;99.90;;;;;;6182678;23;20021;-87
2022/11/12 00:45:06;;;;;;;;;;;;;;;;;;;;;
2022/11/12 00:48:24;;;;;;;6.50;2.67;;;7.30;99.90;;;;;;6184845;23;20033;-87
2022/11/12 00:51:47;;;;;;;4.32;1.98;;;7.30;99.90;;;;;;6184972;23;20639;-88
2022/11/12 00:54:51;;;;;;;5.35;2.25;;;7.30;99.90;;;;;;6185279;23;20329;-88
2022/11/12 00:58:18;;;;;;;;;;;;;;;;;;;;;
2022/11/12 01:01:42;;;;;;;;;;;;;;;;;;;;;
2022/11/12 01:04:51;;;;;;;4.78;2.47;;;7.30;99.90;;;;;;6133236;23;20329;-87
2022/11/12 01:08:26;;;;;;;3.77;2.10;;;7.20;99.90;;;;;;6184905;23;20021;-87
2022/11/12 01:11:34;;;;;;;5.80;2.30;;;7.10;99.90;;;;;;6184868;23;20267;-87
2022/11/12 01:15:02;;;;;;;;;;;;;;;;;;;;;
2022/11/12 01:18:34;;;;;;;5.13;2.25;;;7.50;99.90;;;;;;6184935;23;20083;-87
2022/11/12 01:21:53;;;;;;;4.35;2.40;;;7.00;99.90;;;;;;6184972;23;20025;-87
2022/11/12 01:25:00;;;;;;;6.57;2.25;;;6.60;99.90;;;;;;6184966;23;20021;-87
2022/11/12 01:28:06;;;;;;;;;;;;;;;;;;;;;
2022/11/12 01:31:38;;;;;;;;;;;;;;;;;;;;;
2022/11/12 01:34:57;;;;;;;5.07;2.05;;;6.70;99.90;;;;;;6132734;23;20472;-88
2022/11/12 01:38:19;;;;;;;;;;;;;;;;;;;;;
2022/11/12 01:42:01;;;;;;;;;;;;;;;;;;;;;
2022/11/12 01:45:26;;;;;;;;;;;;;;;;;;;;;
2022/11/12 01:48:34;;;;;;;4.65;2.25;;;6.50;99.90;;;;;;6132768;23;20013;-87
2022/11/12 01:52:02;;;;;;;3.72;1.70;;;6.50;99.90;;;;;;6132831;23;20024;-87
2022/11/12 01:55:39;;;;;;;4.95;2.28;;;6.40;99.90;;;;;;6184806;23;20072;-86
2022/11/12 01:59:03;;;;;;;4.55;2.15;;;6.30;99.90;;;;;;6064598;23;20363;-87
2022/11/12 02:02:22;;;;;;;6.15;2.40;;;6.30;99.90;;;;;;6064044;23;20018;-87
2022/11/12 02:05:46;;;;;;;3.30;1.80;;;6.20;99.90;;;;;;6064687;23;20093;-87
2022/11/12 02:08:58;;;;;;;4.47;2.30;;;6.10;99.90;;;;;;6038763;23;20423;-87
2022/11/12 02:15:58;;;;;;;6.13;2.25;;;5.90;99.90;;;;;;6065931;23;20382;-86
2022/11/12 02:19:28;;;;;;;;;;;;;;;;;;;;;
2022/11/12 02:23:04;;;;;;;3.85;1.95;;;5.80;99.90;;;;;;6066510;23;20029;-87
2022/11/12 02:26:50;;;;;;;;;;;;;;;;;;;;;
2022/11/12 02:30:11;;;;;;;4.88;2.63;;;5.70;99.90;;;;;;6065731;23;20070;-87
2022/11/12 02:32:50;;;;;;;4.00;2.50;;;5.30;99.90;;;;;;6150686;23;20531;-87
2022/11/12 02:35:29;;;;;;;3.63;1.77;;;5.60;99.90;;;;;;6184612;23;20020;-86
2022/11/12 02:39:02;;;;;;;;;;;;;;;;;;;;;
2022/11/12 02:42:15;;;;;;;4.18;1.90;;;5.50;99.90;;;;;;6134306;23;20059;-87
2022/11/12 02:45:35;;;;;;;;;;;;;;;;;;;;;
2022/11/12 02:49:12;;;;;;;;;;;;;;;;;;;;;
2022/11/12 02:52:41;;;;;;;;;;;;;;;;;;;;;
2022/11/12 02:55:22;;;;;;;4.15;2.10;;;5.70;99.90;;;;;;6186208;23;20013;-86
2022/11/12 02:58:25;;;;;;;5.45;2.42;;;5.30;99.90;;;;;;6185295;23;20024;-87
2022/11/12 03:01:54;;;;;;;2.83;1.55;;;5.60;99.90;;;;;;6186426;23;20025;-87
2022/11/12 03:05:24;;;;;;;;;;;;;;;;;;;;;
2022/11/12 03:08:16;;;;;;;3.40;1.73;;;5.20;99.90;;;;;;6183347;23;20089;-87
2022/11/12 03:11:26;;;;;;;2.63;1.50;;;5.20;99.90;;;;;;6184736;23;20028;-87
2022/11/12 03:15:04;;;;;;;;;;;;;;;;;;;;;
2022/11/12 03:18:39;;;;;;;;;;;;;;;;;;;;;
2022/11/12 03:21:58;;;;;;;;;;;;;;;;;;;;;
2022/11/12 03:25:13;;;;;;;5.60;2.80;;;4.90;99.90;;;;;;6133700;23;20052;-86
2022/11/12 03:28:36;;;;;;;4.63;1.80;;;4.90;99.90;;;;;;6191713;23;20024;-87
2022/11/12 03:31:51;;;;;;;;;;;;;;;;;;;;;
2022/11/12 03:35:20;;;;;;;;;;;;;;;;;;;;;
2022/11/12 03:38:37;;;;;;;1.77;1.13;;;4.90;99.90;;;;;;6133666;23;20105;-87
2022/11/12 03:41:59;;;;;;;;;;;;;;;;;;;;;
2022/11/12 03:45:31;;;;;;;3.80;1.50;;;4.80;99.90;;;;;;6185448;23;20025;-87
2022/11/12 03:49:02;;;;;;;;;;;;;;;;;;;;;
2022/11/12 03:52:34;;;;;;;5.72;2.80;;;4.70;99.90;;;;;;6185555;23;20375;-87
2022/11/12 03:55:43;;;;;;;3.78;2.38;;;4.70;99.90;;;;;;6182948;23;20021;-86
2022/11/12 03:59:11;;;;;;;4.38;2.08;;;4.70;99.90;;;;;;6185290;23;20061;-86
2022/11/12 04:02:38;;;;;;;4.35;2.17;;;4.80;99.90;;;;;;6185114;23;20024;-87
2022/11/12 04:09:20;;;;;;;1.75;1.33;;;4.60;99.90;;;;;;6185547;23;20460;-87
2022/11/12 04:23:16;;;;;;;3.65;2.20;;;4.40;99.90;;;;;;6185438;23;20025;-86
2022/11/12 04:26:50;;;;;;;;;;;;;;;;;;;;;
2022/11/12 04:33:33;;;;;;;3.08;1.60;;;4.40;99.90;;;;;;6185219;23;20032;-87
2022/11/12 04:37:17;;;;;;;;;;;;;;;;;;;;;
2022/11/12 04:47:30;;;;;;;5.20;2.35;;;4.30;99.90;;;;;;6184911;23;20029;-86
2022/11/12 04:50:40;;;;;;;;;;;;;;;;;;;;;
2022/11/12 04:54:05;;;;;;;;;;;;;;;;;;;;;
2022/11/12 04:57:30;;;;;;;;;;;;;;;;;;;;;
2022/11/12 05:00:18;;;;;;;4.60;3.10;;;4.20;99.90;;;;;;6132811;23;20039;-87
2022/11/12 05:03:40;;;;;;;;;;;;;;;;;;;;;
2022/11/12 05:07:03;;;;;;;4.15;2.85;;;4.20;99.90;;;;;;6184710;23;20017;-86
2022/11/12 05:10:21;;;;;;;4.93;2.95;;;4.30;99.90;;;;;;6184985;23;20028;-87
2022/11/12 05:13:28;;;;;;;4.63;2.75;;;4.30;99.90;;;;;;6183878;23;20021;-86
2022/11/12 05:16:52;;;;;;;;;;;;;;;;;;;;;
2022/11/12 05:20:13;;;;;;;;;;;;;;;;;;;;;
2022/11/12 05:23:38;;;;;;;3.10;2.08;;;5.00;99.90;;;;;;6184496;23;20072;-86
2022/11/12 05:27:30;;;;;;;;;;;;;;;;;;;;;
2022/11/12 05:31:04;;;;;;;;;;;;;;;;;;;;;
2022/11/12 05:34:30;;;;;;;;;;;;;;;;;;;;;
2022/11/12 05:37:45;;;;;;;3.40;1.90;;;4.50;99.90;;;;;;6184920;23;20337;-86
2022/11/12 05:41:09;;;;;;;3.00;2.00;;;3.90;99.90;;;;;;6184688;23;20337;-86
2022/11/12 05:44:26;;;;;;;;;;;;;;;;;;;;;
2022/11/12 05:47:38;;;;;;;4.18;1.73;;;4.80;99.90;;;;;;6183907;23;20028;-86
2022/11/12 05:51:15;;;;;;;3.80;1.98;;;4.90;99.90;;;;;;6186429;23;20028;-87
2022/11/12 05:54:50;;;;;;;;;;;;;;;;;;;;;
2022/11/12 05:58:17;;;;;;;4.18;1.92;;;5.20;99.90;;;;;;6186443;23;20467;-87
2022/11/12 06:01:17;;;;;;;3.45;1.80;;;5.30;99.90;;;;;;6186353;23;20302;-86
2022/11/12 06:03:59;;;;;;;2.50;1.55;;;5.30;99.90;;;;;;6185466;23;20293;-86
2022/11/12 06:07:28;;;;;;;5.15;2.28;;;5.40;99.90;;;;;;6186652;23;20091;-86
2022/11/12 06:10:19;;;;;;;4.63;2.50;;;5.50;99.90;;;;;;6186333;23;20025;-87
2022/11/12 06:13:28;;;;;;;;;;;;;;;;;;;;;
2022/11/12 06:17:02;;;;;;;;;;;;;;;;;;;;;
2022/11/12 06:20:34;;;;;;;;;;;;;;;;;;;;;
2022/11/12 06:24:00;;;;;;;;;;;;;;;;;;;;;
2022/11/12 06:27:30;;;;;;;;;;;;;;;;;;;;;
2022/11/12 06:30:39;;;;;;;4.00;2.15;;;5.60;99.90;;;;;;6185762;23;20017;-86
2022/11/12 06:34:11;;;;;;;5.50;2.58;;;5.50;99.90;;;;;;6156543;23;20029;-86
2022/11/12 06:37:26;;;;;;;;;;;;;;;;;;;;;
2022/11/12 06:40:52;;;;;;;;;;;;;;;;;;;;;
2022/11/12 06:44:10;;;;;;;6.60;3.83;;;5.40;99.90;;;;;;6105018;23;20023;-86
2022/11/12 06:47:24;;;;;;;5.63;3.50;;;5.30;99.90;;;;;;6156578;23;20084;-86
2022/11/12 06:50:34;;;;;;;6.80;3.17;;;5.20;99.90;;;;;;6156144;23;20026;-89
2022/11/12 06:53:23;;;;;;;5.33;3.00;;;5.20;99.90;;;;;;6156440;23;20088;-90
2022/11/12 06:56:17;;;;;;;6.60;3.85;;;5.20;99.90;;;;;;6152560;23;20249;-87
2022/11/12 06:59:28;;;;;;;;;;;;;;;;;;;;;
2022/11/12 07:02:30;;;;;;;5.72;2.95;;;5.10;99.90;;;;;;6155542;23;20052;-86
2022/11/12 07:05:33;;;;;;;4.60;2.60;;;5.10;99.90;;;;;;6152588;23;20084;-87
2022/11/12 07:08:19;;;;;;;5.57;3.42;;;5.10;99.90;;;;;;6105053;23;20017;-88
2022/11/12 07:11:02;;;;;;;4.75;2.50;;;5.00;99.90;;;;;;6156923;23;20018;-86
2022/11/12 07:14:16;;;;;;;;;;;;;;;;;;;;;
2022/11/12 07:17:45;;;;;;;;;;;;;;;;;;;;;
2022/11/12 07:20:54;;;;;;;3.80;2.10;;;5.00;99.90;;;;;;6156179;23;20025;-87
2022/11/12 07:24:02;;;;;;;4.57;2.53;;;5.00;99.90;;;;;;6156042;23;20025;-87
2022/11/12 07:27:14;;;;;;;3.38;1.98;;;5.00;99.90;;;;;;6156279;23;20025;-86
2022/11/12 07:30:14;;;;;;;4.00;2.40;;;5.00;99.90;;;;;;6154837;23;20472;-87
2022/11/12 07:33:32;;;;;;;;;;;;;;;;;;;;;
2022/11/12 07:36:44;;;;;;;;;;;;;;;;;;;;;
2022/11/12 07:40:03;;;;;;;2.80;1.63;;;5.10;99.90;;;;;;6186064;23;20087;-91
2022/11/12 07:42:53;;;;;;;3.28;1.60;;;5.20;99.90;;;;;;6160405;23;20063;-89
2022/11/12 07:49:23;;;;;;;2.85;1.90;;;5.60;99.90;;;;;;6149698;23;20021;-89
2022/11/12 07:52:32;;;;;;;5.72;2.10;;;5.40;99.90;;;;;;6185701;23;20078;-87
2022/11/12 07:55:43;;;;;;;3.47;2.30;;;5.50;99.90;;;;;;6185375;23;20028;-88
2022/11/12 07:58:12;;;;;;;4.90;2.33;;;5.50;99.90;;;;;;6182071;23;20531;-86
2022/11/12 08:01:32;;;;;;;;;;;;;;;;;;;;;
2022/11/12 08:04:43;;;;;;;5.63;2.40;;;5.70;99.90;;;;;;6184468;23;20071;-87
2022/11/12 08:07:44;;;;;;;4.47;2.45;;;5.70;99.90;;;;;;6184970;23;20052;-87
2022/11/12 08:10:35;;;;;;;5.25;2.35;;;5.80;99.90;;;;;;6185284;23;20021;-87
2022/11/12 08:14:08;;;;;;;5.97;2.55;;;5.90;99.90;;;;;;6184187;23;20339;-86
2022/11/12 08:17:05;;;;;;;4.97;2.67;;;6.00;99.90;;;;;;6065333;23;20362;-87
2022/11/12 08:20:00;;;;;;;9.07;5.20;;;6.10;99.90;;;;;;6065629;23;20026;-87
2022/11/12 08:23:25;;;;;;;;;;;;;;;;;;;;;
2022/11/12 08:26:28;;;;;;;11.95;5.93;;;6.30;99.90;;;;;;5952559;24;20027;-88
2022/11/12 08:29:02;;;;;;;9.68;5.53;;;6.30;99.90;;;;;;5924314;24;20031;-87
2022/11/12 08:31:53;;;;;;;11.35;6.35;;;5.90;99.90;;;;;;5900873;24;20048;-86
2022/11/12 08:35:07;;;;;;;9.57;5.25;;;6.40;99.90;;;;;;5898306;24;20046;-86
2022/11/12 08:41:42;;;;;;;;;;;;;;;;;;;;;
2022/11/12 08:52:05;;;;;;;13.68;7.13;;;6.70;99.90;;;;;;6028504;22;20159;-87
2022/11/12 08:55:04;;;;;;;16.00;8.63;;;7.70;99.90;;;;;;6185170;23;20032;-87
2022/11/12 08:58:11;;;;;;;;;;;;;;;;;;;;;
2022/11/12 09:04:44;;;;;;;15.55;7.28;;;6.80;99.90;;;;;;6097202;23;20403;-88
2022/11/12 09:07:44;;;;;;;16.70;7.30;;;7.10;99.90;;;;;;6123551;23;20025;-86
2022/11/12 09:10:48;;;;;;;17.05;7.95;;;7.20;99.90;;;;;;6123042;23;20360;-86
2022/11/12 09:13:56;;;;;;;;;;;;;;;;;;;;;
2022/11/12 09:16:37;;;;;;;18.35;7.15;;;8.20;99.90;;;;;;6122440;23;20110;-86
2022/11/12 09:19:05;;;;;;;21.02;9.40;;;7.40;99.90;;;;;;6122145;23;20413;-87
2022/11/12 09:21:32;;;;;;;23.70;8.88;;;7.40;99.90;;;;;;6122310;23;20053;-85
2022/11/12 09:23:58;;;;;;;16.08;6.88;;;7.50;99.90;;;;;;6098372;23;20151;-84
2022/11/12 09:26:25;;;;;;;12.80;5.70;;;7.60;99.90;;;;;;6123007;23;20022;-84
2022/11/12 09:28:55;;;;;;;11.50;4.93;;;7.60;99.90;;;;;;6122189;23;20405;-85
2022/11/12 09:31:26;;;;;;;10.98;4.82;;;7.70;99.90;;;;;;6073733;23;20053;-86
2022/11/12 09:33:59;;;;;;;11.88;3.75;;;7.70;99.90;;;;;;6122923;23;20053;-85
2022/11/12 09:36:28;;;;;;;7.72;3.60;;;7.80;99.90;;;;;;6122374;23;20520;-85
2022/11/12 09:38:54;;;;;;;10.95;3.90;;;7.80;99.90;;;;;;6166999;23;20761;-85
2022/11/12 09:41:37;;;;;;;11.85;3.60;;;7.90;99.90;;;;;;6184733;23;20025;-85
2022/11/12 09:44:20;;;;;;;6.75;2.83;;;8.70;99.90;;;;;;6184486;23;20017;-86
2022/11/12 09:54:42;;;;;;;13.40;4.22;;;8.10;99.90;;;;;;6180759;23;20367;-86
2022/11/12 09:57:12;;;;;;;10.20;4.55;;;8.10;99.90;;;;;;6154872;23;20029;-86
2022/11/12 10:00:08;;;;;;;11.82;4.47;;;8.20;99.90;;;;;;6128093;23;20032;-87
2022/11/12 10:06:51;;;;;;;14.65;4.43;;;8.30;99.90;;;;;;6036390;23;20485;-89
2022/11/12 10:10:22;;;;;;;;;;;;;;;;;;;;;
2022/11/12 10:14:05;;;;;;;11.93;4.45;;;8.50;99.90;;;;;;6033727;23;20039;-87
2022/11/12 10:17:48;;;;;;;;;;;;;;;;;;;;;
2022/11/12 10:21:10;;;;;;;;;;;;;;;;;;;;;
2022/11/12 10:24:30;;;;;;;;;;;;;;;;;;;;;
2022/11/12 10:27:42;;;;;;;14.90;5.05;;;8.70;99.90;;;;;;6033556;23;20019;-88
2022/11/12 10:30:54;;;;;;;;;;;;;;;;;;;;;
2022/11/12 10:34:11;;;;;;;;;;;;;;;;;;;;;
2022/11/12 10:37:34;;;;;;;;;;;;;;;;;;;;;
2022/11/12 10:41:10;;;;;;;;;;;;;;;;;;;;;
2022/11/12 10:44:10;;;;;;;;;;;8.80;99.90;;;;;;6149545;23;20033;-88
2022/11/12 10:47:37;;;;;;;12.57;5.47;;;8.80;99.90;;;;;;6129302;23;20438;-88
2022/11/12 10:51:10;;;;;;;;;;;;;;;;;;;;;
2022/11/12 10:54:19;;;;;;;12.35;5.00;;;8.80;99.90;;;;;;6127415;23;20033;-90
2022/11/12 10:57:38;;;;;;;;;;;;;;;;;;;;;
2022/11/12 11:00:40;;;;;;;11.38;4.70;;;8.90;99.90;;;;;;6186553;23;20032;-90
2022/11/12 11:03:53;;;;;;;;;;;;;;;;;;;;;
2022/11/12 11:07:13;;;;;;;;;;;;;;;;;;;;;
2022/11/12 11:10:28;;;;;;;11.18;4.35;;;9.00;99.90;;;;;;6186466;23;20044;-90
2022/11/12 11:14:00;;;;;;;11.50;4.55;;;9.00;99.90;;;;;;6184286;23;20017;-90
2022/11/12 11:17:30;;;;;;;14.73;6.10;;;9.30;99.90;;;;;;6186465;23;20031;-90
2022/11/12 11:20:33;;;;;;;13.13;4.85;;;9.10;99.90;;;;;;6183497;23;20068;-91
2022/11/12 11:23:55;;;;;;;;;;;;;;;;;;;;;
2022/11/12 11:27:14;;;;;;;11.55;5.82;;;9.00;99.90;;;;;;6186463;23;20032;-91
2022/11/12 11:30:17;;;;;;;11.50;4.78;;;9.10;99.90;;;;;;6186777;23;20085;-89
2022/11/12 11:33:46;;;;;;;11.05;4.88;;;9.10;99.90;;;;;;6186270;23;20104;-90
2022/11/12 11:36:59;;;;;;;10.82;5.60;;;8.80;99.90;;;;;;6186649;23;20031;-89
2022/11/12 11:40:24;;;;;;;12.77;5.40;;;9.10;99.90;;;;;;6186002;23;20021;-89
2022/11/12 11:43:38;;;;;;;;;;;;;;;;;;;;;
2022/11/12 11:46:58;;;;;;;;;;;;;;;;;;;;;
2022/11/12 11:50:36;;;;;;;8.63;4.82;;;9.20;99.90;;;;;;6186043;23;20409;-90
2022/11/12 11:53:59;;;;;;;;;;;;;;;;;;;;;
2022/11/12 11:57:36;;;;;;;9.85;5.43;;;9.20;99.90;;;;;;6182696;23;20031;-88
2022/11/12 12:00:59;;;;;;;;;;;;;;;;;;;;;
2022/11/12 12:04:01;;;;;;;11.93;4.80;;;9.10;99.90;;;;;;6183355;23;20024;-89
2022/11/12 12:07:14;;;;;;;;;;;;;;;;;;;;;
2022/11/12 12:10:25;;;;;;;9.10;4.95;;;9.20;99.90;;;;;;6182919;23;20071;-90
2022/11/12 12:13:46;;;;;;;;;;;;;;;;;;;;;
2022/11/12 12:17:05;;;;;;;10.63;5.20;;;9.20;99.90;;;;;;6182691;23;20060;-90
2022/11/12 12:20:46;;;;;;;11.82;5.60;;;9.20;99.90;;;;;;6185566;23;20052;-89
2022/11/12 12:24:15;;;;;;;11.60;5.28;;;8.90;99.90;;;;;;6159345;23;20473;-90
2022/11/12 12:31:00;;;;;;;10.25;4.90;;;8.80;99.90;;;;;;5929463;24;20051;-90
2022/11/12 12:34:06;;;;;;;11.25;5.47;;;9.40;99.90;;;;;;5927840;24;20483;-91
2022/11/12 12:37:51;;;;;;;9.73;5.60;;;9.40;99.90;;;;;;5952852;24;20032;-90
2022/11/12 12:41:03;;;;;;;;;;;;;;;;;;;;;
2022/11/12 12:44:05;;;;;;;;;;;;;;;;;;;;;
2022/11/12 12:47:26;;;;;;;11.70;5.45;;;9.60;99.90;;;;;;5926470;24;20123;-91
2022/11/12 12:50:31;;;;;;;12.82;5.53;;;9.60;99.90;;;;;;5951190;24;20032;-90
2022/11/12 12:53:50;;;;;;;10.82;5.90;;;9.50;99.90;;;;;;5933994;24;20024;-88
2022/11/12 12:56:58;;;;;;;;;;;;;;;;;;;;;
2022/11/12 13:00:45;;;;;;;12.45;7.30;;;9.60;99.90;;;;;;5955690;23;20027;-90
2022/11/12 13:04:08;;;;;;;;;;;;;;;;;;;;;
2022/11/12 13:07:32;;;;;;;;;;;;;;;;;;;;;
2022/11/12 13:10:54;;;;;;;;;;;;;;;;;;;;;
2022/11/12 13:14:00;;;;;;;;;;;;;;;;;;;;;
2022/11/12 13:17:22;;;;;;;11.82;6.13;;;9.30;99.90;;;;;;6039722;23;20519;-89
2022/11/12 13:20:24;;;;;;;;;;;;;;;;;;;;;
2022/11/12 13:24:04;;;;;;;15.75;7.00;;;9.70;99.90;;;;;;6064832;23;20106;-90
2022/11/12 13:27:09;;;;;;;13.77;7.38;;;9.90;99.90;;;;;;6063999;23;20069;-90
2022/11/12 13:30:27;;;;;;;;;;;;;;;;;;;;;
2022/11/12 13:33:46;;;;;;;14.00;7.53;;;10.00;99.90;;;;;;6065211;23;20054;-89
2022/11/12 13:36:59;;;;;;;11.45;6.57;;;9.80;99.90;;;;;;6065745;23;20023;-89
2022/11/12 13:40:11;;;;;;;;;;;;;;;;;;;;;
2022/11/12 13:43:46;;;;;;;;;;;;;;;;;;;;;
2022/11/12 13:46:58;;;;;;;;;;;;;;;;;;;;;
2022/11/12 13:50:01;;;;;;;12.85;7.75;;;10.20;99.90;;;;;;6172889;23;20091;-90
2022/11/12 13:53:11;;;;;;;;;;;;;;;;;;;;;
2022/11/12 13:56:15;;;;;;;14.13;7.10;;;10.30;99.90;;;;;;6185534;23;20044;-91
2022/11/12 13:59:29;;;;;;;11.18;6.47;;;10.20;99.90;;;;;;6181479;23;20065;-90
2022/11/12 14:02:44;;;;;;;;;;;;;;;;;;;;;
2022/11/12 14:05:57;;;;;;;;;;;;;;;;;;;;;
2022/11/12 14:09:14;;;;;;;15.40;8.70;;;10.10;99.90;;;;;;6187001;23;20028;-90
2022/11/12 14:12:15;;;;;;;;;;;;;;;;;;;;;
2022/11/12 14:15:17;;;;;;;14.85;8.57;;;10.10;99.90;;;;;;6183998;23;20467;-90
2022/11/12 14:18:55;;;;;;;13.57;8.43;;;10.10;99.90;;;;;;6159505;23;20032;-90
2022/11/12 14:21:59;;;;;;;13.38;7.28;;;10.10;99.90;;;;;;6184563;23;20021;-90
2022/11/12 14:25:01;;;;;;;15.73;8.30;;;10.00;99.90;;;;;;6184535;23;20107;-91
2022/11/12 14:28:04;;;;;;;14.32;7.97;;;10.00;99.90;;;;;;6183899;23;20375;-88
2022/11/12 14:31:03;;;;;;;13.80;7.65;;;10.00;99.90;;;;;;6183724;23;20333;-88
2022/11/12 14:34:32;;;;;;;13.27;7.65;;;10.00;99.90;;;;;;6186997;23;20027;-89
2022/11/12 14:37:45;;;;;;;14.05;6.90;;;9.90;99.90;;;;;;6071031;23;20097;-88
2022/11/12 14:40:33;;;;;;;16.23;8.85;;;9.80;99.90;;;;;;6070251;23;20029;-87
2022/11/12 14:43:46;;;;;;;15.02;8.48;;;9.80;99.90;;;;;;6071525;23;20026;-87
2022/11/12 14:46:58;;;;;;;15.60;8.57;;;9.80;99.90;;;;;;6088579;23;20025;-88
2022/11/12 14:50:06;;;;;;;18.63;10.63;;;9.80;99.90;;;;;;6071229;23;20402;-87
2022/11/12 14:53:24;;;;;;;20.10;10.35;;;9.70;99.90;;;;;;6095716;23;20054;-89
2022/11/12 14:56:34;;;;;;;17.13;9.27;;;9.40;99.90;;;;;;6070762;23;20346;-87
2022/11/12 14:59:54;;;;;;;17.27;8.57;;;9.50;99.90;;;;;;6095429;23;20034;-88
2022/11/12 15:03:05;;;;;;;20.20;9.20;;;9.50;99.90;;;;;;6073724;23;20537;-87
2022/11/12 15:06:17;;;;;;;14.30;8.73;;;9.40;99.90;;;;;;6071940;23;20520;-87
2022/11/12 15:09:17;;;;;;;16.88;7.70;;;9.30;99.90;;;;;;6069005;23;20157;-90
2022/11/12 15:12:10;;;;;;;15.00;8.50;;;9.20;99.90;;;;;;6068849;23;20074;-90
2022/11/12 15:15:47;;;;;;;;;;;;;;;;;;;;;
2022/11/12 15:19:00;;;;;;;15.52;8.98;;;9.10;99.90;;;;;;6182486;23;20111;-88
2022/11/12 15:22:05;;;;;;;15.30;8.63;;;8.90;99.90;;;;;;6183216;23;20482;-92
2022/11/12 15:25:44;;;;;;;14.27;8.27;;;8.90;99.90;;;;;;6186320;23;20025;-89
2022/11/12 15:28:58;;;;;;;15.60;7.90;;;9.10;99.90;;;;;;6115018;23;20483;-89
2022/11/12 15:39:08;;;;;;;;;;;;;;;;;;;;;
2022/11/12 15:42:09;;;;;;;13.93;7.18;;;8.50;99.90;;;;;;6036341;23;20019;-90
2022/11/12 15:44:48;;;;;;;;;;;;;;;;;;;;;
2022/11/12 15:53:06;;;;;;;17.85;8.27;;;8.20;99.90;;;;;;6155788;23;20032;-90
2022/11/12 15:56:02;;;;;;;14.65;7.68;;;8.00;99.90;;;;;;6105265;23;20444;-89
2022/11/12 15:59:11;;;;;;;;;;;;;;;;;;;;;
2022/11/12 16:02:23;;;;;;;;;;;;;;;;;;;;;
2022/11/12 16:04:58;;;;;;;16.42;8.48;;;7.90;99.90;;;;;;6150917;23;20053;-86
2022/11/12 16:08:19;;;;;;;17.45;8.43;;;8.00;99.90;;;;;;6153871;23;20048;-91
2022/11/12 16:11:06;;;;;;;;;;;;;;;;;;;;;
2022/11/12 16:13:53;;;;;;;;;;;;;;;;;;;;;
2022/11/12 16:16:21;;;;;;;15.27;8.50;;;7.80;99.90;;;;;;6038529;23;20089;-89
2022/11/12 16:18:55;;;;;;;15.13;7.63;;;7.90;99.90;;;;;;6064982;23;20505;-89
2022/11/12 16:22:02;;;;;;;13.43;7.50;;;7.80;99.90;;;;;;6040582;23;20022;-89
2022/11/12 16:24:52;;;;;;;11.25;7.10;;;8.40;99.90;;;;;;6064589;23;20023;-88
2022/11/12 16:27:21;;;;;;;11.40;6.05;;;7.80;99.90;;;;;;6017532;23;20021;-88
2022/11/12 16:35:15;;;;;;;13.63;7.05;;;7.60;99.90;;;;;;6150075;23;20025;-87
2022/11/12 16:38:16;;;;;;;14.77;7.70;;;7.40;99.90;;;;;;6159391;23;20025;-89
2022/11/12 16:44:27;;;;;;;15.77;7.32;;;7.40;99.90;;;;;;6093527;23;20111;-89
2022/11/12 16:47:04;;;;;;;13.23;7.40;;;7.30;99.90;;;;;;6046319;23;20428;-90
2022/11/12 16:49:35;;;;;;;13.70;6.28;;;7.30;99.90;;;;;;6093705;23;20018;-90
2022/11/12 16:59:56;;;;;;;;;;;;;;;;;;;;;
2022/11/12 17:06:59;;;;;;;14.15;7.10;;;7.10;99.90;;;;;;6065516;23;20022;-90
2022/11/12 17:09:59;;;;;;;11.10;6.35;;;7.10;99.90;;;;;;5907692;24;20020;-89
2022/11/12 17:12:31;;;;;;;12.65;6.90;;;6.90;99.90;;;;;;5952175;24;20441;-88
2022/11/12 17:15:09;;;;;;;11.30;6.20;;;6.90;99.90;;;;;;5953069;24;20039;-88
2022/11/12 17:18:10;;;;;;;9.32;5.43;;;6.90;99.90;;;;;;5929709;24;20059;-86
2022/11/12 17:21:26;;;;;;;8.63;4.65;;;6.80;99.90;;;;;;5926895;24;20109;-90
2022/11/12 17:25:56;;;;;;;8.82;4.75;;;7.40;99.90;;;;;;5924770;24;20064;-90
2022/11/12 17:29:41;;;;;;;7.95;3.90;;;7.40;99.90;;;;;;5911386;24;20040;-90
2022/11/12 17:33:03;;;;;;;6.95;4.15;;;6.70;99.90;;;;;;5924740;24;20579;-86
2022/11/12 17:36:16;;;;;;;7.28;4.68;;;7.30;99.90;;;;;;5938281;24;20035;-90
2022/11/12 17:39:14;;;;;;;7.40;4.43;;;6.60;99.90;;;;;;5984157;23;20094;-87
2022/11/12 17:46:31;;;;;;;;;;;;;;;;;;;;;
2022/11/12 17:49:50;;;;;;;;;;;;;;;;;;;;;
2022/11/12 17:53:33;;;;;;;7.25;4.30;;;6.50;99.90;;;;;;5953960;24;20023;-89
2022/11/12 17:56:33;;;;;;;6.20;3.55;;;6.50;99.90;;;;;;5930193;24;20024;-91
2022/11/12 18:00:18;;;;;;;;;;;;;;;;;;;;;
2022/11/12 18:03:25;;;;;;;6.90;3.20;;;6.40;99.90;;;;;;6053324;23;20486;-87
2022/11/12 18:06:27;;;;;;;9.93;4.32;;;6.50;99.90;;;;;;6019161;23;20098;-90
2022/11/12 18:09:52;;;;;;;;;;;;;;;;;;;;;
2022/11/12 18:13:02;;;;;;;7.75;4.35;;;6.40;99.90;;;;;;6066985;23;20030;-87
2022/11/12 18:16:55;;;;;;;;;;;;;;;;;;;;;
2022/11/12 18:20:01;;;;;;;7.75;4.18;;;6.20;99.90;;;;;;6052319;23;20526;-92
2022/11/12 18:23:31;;;;;;;;;;;;;;;;;;;;;
2022/11/12 18:27:06;;;;;;;6.40;3.70;;;7.00;99.90;;;;;;6217009;23;20336;-89
2022/11/12 18:30:30;;;;;;;10.43;4.47;;;6.20;99.90;;;;;;6216262;23;20021;-90
2022/11/12 18:37:42;;;;;;;;;;;;;;;;;;;;;
2022/11/12 18:41:24;;;;;;;;;;;;;;;;;;;;;
2022/11/12 18:44:33;;;;;;;;;;;;;;;;;;;;;
2022/11/12 18:47:48;;;;;;;;;;;;;;;;;;;;;
2022/11/12 18:54:33;;;;;;;8.02;3.42;;;6.70;99.90;;;;;;5980558;24;20071;-89
2022/11/12 19:02:05;;;;;;;;;;;;;;;;;;;;;
2022/11/12 19:05:16;;;;;;;6.10;4.03;;;5.50;99.90;;;;;;5844192;24;20034;-91
2022/11/12 19:19:59;;;;;;;;;;;;;;;;;;;;;
2022/11/12 19:23:46;;;;;;;;;;;;;;;;;;;;;
2022/11/12 19:27:25;;;;;;;;;;;;;;;;;;;;;
2022/11/12 19:34:23;;;;;;;6.75;4.10;;;5.80;99.90;;;;;;6215489;23;20074;-92
2022/11/12 19:46:41;;;;;;;8.02;4.18;;;5.80;99.90;;;;;;6121126;23;20414;-90
2022/11/12 19:54:04;;;;;;;7.57;3.85;;;7.70;99.90;;;;;;5873907;24;20500;-91
2022/11/12 20:08:52;;;;;;;7.40;3.83;;;5.90;99.90;;;;;;6206433;23;20024;-92
2022/11/12 20:12:38;;;;;;;;;;;;;;;;;;;;;
2022/11/12 20:15:52;;;;;;;7.45;4.25;;;5.90;99.90;;;;;;6215580;23;20325;-90
2022/11/12 20:26:32;;;;;;;5.90;3.30;;;5.90;99.90;;;;;;6215490;23;20031;-89
2022/11/12 20:29:40;;;;;;;4.20;2.83;;;5.90;99.90;;;;;;6124034;23;20037;-91
2022/11/12 20:32:58;;;;;;;8.07;4.20;;;6.30;99.90;;;;;;6124697;23;20072;-92
2022/11/12 20:36:37;;;;;;;8.10;4.10;;;5.90;99.90;;;;;;6123964;23;20441;-90
2022/11/12 20:40:18;;;;;;;8.63;4.53;;;5.80;99.90;;;;;;6008758;23;20539;-91
2022/11/12 20:43:54;;;;;;;6.28;3.75;;;5.70;99.90;;;;;;5952312;24;20388;-92
2022/11/12 20:55:11;;;;;;;7.25;3.35;;;5.10;99.90;;;;;;5869947;24;20021;-91
2022/11/12 20:58:05;;;;;;;7.85;3.92;;;5.50;99.90;;;;;;5764083;24;20012;-91
2022/11/12 21:01:16;;;;;;;8.65;4.38;;;5.50;99.90;;;;;;5974574;23;20025;-90
2022/11/12 21:04:10;;;;;;;5.45;3.58;;;5.40;99.90;;;;;;6173533;23;20025;-91
2022/11/12 21:07:14;;;;;;;6.70;3.90;;;5.50;99.90;;;;;;6158536;23;20065;-92
2022/11/12 21:13:33;;;;;;;6.88;4.13;;;5.50;99.90;;;;;;5923481;24;20036;-90
2022/11/12 21:16:43;;;;;;;;;;;;;;;;;;;;;
2022/11/12 21:23:23;;;;;;;;;;;;;;;;;;;;;
2022/11/12 21:26:12;;;;;;;9.45;4.07;;;5.30;99.90;;;;;;6067267;23;20029;-89
2022/11/12 21:28:57;;;;;;;9.10;4.45;;;5.20;99.90;;;;;;6182283;23;20021;-90
2022/11/12 21:39:26;;;;;;;;;;;;;;;;;;;;;
2022/11/12 21:44:57;;;;;;;6.70;4.22;;;5.10;99.90;;;;;;6210826;23;20423;-91
2022/11/12 21:52:01;;;;;;;7.70;4.05;;;5.00;99.90;;;;;;6182307;23;20055;-90
2022/11/12 21:59:01;;;;;;;;;;;;;;;;;;;;;
2022/11/12 22:01:36;;;;;;;5.22;3.50;;;5.00;99.90;;;;;;6052337;23;20012;-89
2022/11/12 22:04:15;;;;;;;7.95;4.57;;;5.00;99.90;;;;;;6214181;23;20031;-88
2022/11/12 22:06:47;;;;;;;6.22;3.47;;;5.00;99.90;;;;;;6188078;23;20085;-87
2022/11/12 22:09:26;;;;;;;5.88;3.67;;;5.00;99.90;;;;;;6215616;23;20386;-89
2022/11/12 22:11:58;;;;;;;8.57;3.20;;;5.00;99.90;;;;;;6187926;23;20380;-88
2022/11/12 22:14:42;;;;;;;5.78;3.58;;;5.00;99.90;;;;;;6188160;23;20028;-88
2022/11/12 22:17:17;;;;;;;6.68;3.60;;;5.00;99.90;;;;;;6214555;23;20024;-88
2022/11/12 22:19:48;;;;;;;6.63;3.92;;;4.60;99.90;;;;;;6186949;23;20056;-88
2022/11/12 22:22:18;;;;;;;8.43;4.13;;;4.60;99.90;;;;;;6188082;23;20104;-88
2022/11/12 22:24:53;;;;;;;4.90;3.38;;;5.50;99.90;;;;;;6188589;23;20466;-87
2022/11/12 22:27:24;;;;;;;9.00;3.97;;;5.00;99.90;;;;;;6188642;23;20013;-88
2022/11/12 22:30:01;;;;;;;7.05;4.22;;;5.10;99.90;;;;;;6189791;23;20025;-88
2022/11/12 22:32:48;;;;;;;7.15;4.57;;;5.00;99.90;;;;;;6189906;23;20039;-88
2022/11/12 22:35:18;;;;;;;7.68;4.32;;;5.00;99.90;;;;;;6189478;23;20008;-88
2022/11/12 22:37:51;;;;;;;9.65;4.05;;;5.00;99.90;;;;;;6213819;23;20078;-88
2022/11/12 22:40:22;;;;;;;7.63;4.13;;;5.30;99.90;;;;;;6189284;23;20020;-88
2022/11/12 22:42:51;;;;;;;7.03;4.18;;;4.90;99.90;;;;;;6164293;23;20440;-88